KNYG/NYG METAR and TAF weather

Enter ICAO airport designator
Station Type Date Time Source
KNYG METAR 2021/10/24 21:56 UTC NOAA

KNYG 242156Z AUTO 13011KT 10SM CLR 21/14 A3007 RMK AO2 SLP182 T02110139 PNO $


Station Type Date Time Source
KNYG Decoded METAR 2021/10/24 21:56 UTC NOAA

QUANTICO MARINE CORPS AIRFAC, VA, United States (KNYG) 38-30N 077-18W 3M
Oct 24, 2021 - 05:56 PM EDT / 2021.10.24 2156 UTC
Wind: from the SE (130 degrees) at 13 MPH (11 KT):0
Visibility: 10 mile(s):0
Sky conditions: clear
Temperature: 70.0 F (21.1 C)
Dew Point: 57.0 F (13.9 C)
Relative Humidity: 63%
Pressure (altimeter): 30.07 in. Hg (1018 hPa)
ob: KNYG 242156Z AUTO 13011KT 10SM CLR 21/14 A3007 RMK AO2 SLP182 T02110139 PNO
cycle: 22

Station Type Date Time Source
KNYG TAF 2021/10/22 21:36 UTC NOAA

TAF TAF KNYG 2221/2321 VRB06KT 9999 SCT050 BKN080 OVC095 QNH2993INS
BECMG 2306/2308 VRB06KT 9999 SCT020 BKN040 OVC050 QNH2993INS
FM231800 VRB06KT 9999 SCT030 QNH2997INS T18/2221Z T12/2307Z LAST NO AMENDS UNTIL 2509

Example: see airport list